Terminal Aerodrome Forecast
Issued by NWS Cleveland, OH

Home | Current Version | Previous Version | Graphics & Text | Print | Product List | Glossary On
Versions: 1 2 3 4 5 6 7 8 9 10 11 12 13 14 15 16 17 18 19 20
199
FTUS41 KCLE 281726
TAFCAK
TAF
KCAK 281726Z 2818/2918 05006KT 4SM BR VCSH SCT008 OVC015
     FM282000 05008KT 6SM BR OVC006
     FM290400 02005KT 2SM -DZ BR OVC003
     FM291500 32006KT P6SM OVC006
     FM291700 31005KT P6SM SCT008 OVC015=

USA.gov is the U.S. government's official web portal to all federal, state and local government web resources and services.